createdAt,value
2019-01-17T00:04:30.544Z,9.73
2019-01-17T00:07:17.953Z,10.88
2019-01-17T00:10:05.402Z,10.40
2019-01-17T00:13:12.465Z,10.80
2019-01-17T00:15:59.934Z,10.72
2019-01-17T00:21:36.629Z,11.50
2019-01-17T00:24:43.663Z,11.10
2019-01-17T00:27:50.424Z,11.35
2019-01-17T00:30:37.845Z,11.30
2019-01-17T00:33:25.287Z,11.18
2019-01-17T00:36:12.703Z,11.18
2019-01-17T00:41:39.404Z,11.30
2019-01-17T00:44:27.084Z,11.60
2019-01-17T00:47:14.512Z,11.20
2019-01-17T00:52:40.952Z,10.90
2019-01-17T00:55:49.539Z,11.17
2019-01-17T00:58:36.957Z,11.33
2019-01-17T01:01:24.406Z,11.00
2019-01-17T01:04:11.833Z,12.07
2019-01-17T01:07:21.467Z,11.10
2019-01-17T01:15:58.109Z,11.15
2019-01-17T01:18:45.530Z,10.53
2019-01-17T01:21:32.939Z,10.50
2019-01-17T01:24:20.364Z,10.30
2019-01-17T01:27:08.015Z,9.38
2019-01-17T01:29:55.438Z,9.05
2019-01-17T01:32:42.853Z,8.80
2019-01-17T01:35:30.293Z,8.35
2019-01-17T01:38:17.694Z,7.90
2019-01-17T01:43:44.255Z,7.35
2019-01-17T01:46:31.698Z,7.60
2019-01-17T01:49:19.093Z,6.83
2019-01-17T01:54:26.922Z,8.10
2019-01-17T01:56:55.262Z,8.03
2019-01-17T01:59:23.530Z,8.30
2019-01-17T02:01:51.823Z,8.40
2019-01-17T02:04:20.124Z,8.70
2019-01-17T02:06:48.409Z,9.03
2019-01-17T02:09:36.172Z,9.10
2019-01-17T02:12:44.526Z,9.50
2019-01-17T02:15:52.859Z,9.35
2019-01-17T02:18:21.159Z,8.83
2019-01-17T02:20:49.440Z,9.80
2019-01-17T02:23:57.863Z,9.40
2019-01-17T02:26:26.145Z,9.28
2019-01-17T02:28:54.481Z,11.15
2019-01-17T02:31:22.780Z,10.50
2019-01-17T02:34:10.455Z,10.60
2019-01-17T02:36:38.756Z,11.10
2019-01-17T02:39:47.119Z,11.43
2019-01-17T02:42:15.429Z,12.53
2019-01-17T02:44:43.709Z,11.83
2019-01-17T02:47:12.024Z,12.30
2019-01-17T02:49:40.327Z,12.70
2019-01-17T02:52:08.643Z,12.00
2019-01-17T02:54:56.687Z,12.53
2019-01-17T02:57:24.994Z,12.95
2019-01-17T02:59:53.302Z,12.23
2019-01-17T03:02:21.626Z,12.40
2019-01-17T03:05:09.317Z,11.30
2019-01-17T03:07:57.102Z,11.88
2019-01-17T03:10:25.392Z,11.60
2019-01-17T03:12:53.681Z,11.90
2019-01-17T03:15:22.003Z,12.10
2019-01-17T03:17:50.306Z,11.93
2019-01-17T03:20:18.880Z,12.57
2019-01-17T03:22:47.171Z,11.73
2019-01-17T03:28:16.464Z,12.58
2019-01-17T03:30:44.795Z,12.70
2019-01-17T03:33:13.088Z,12.58
2019-01-17T03:35:41.386Z,13.63
2019-01-17T03:38:49.719Z,12.55
2019-01-17T03:41:18.048Z,12.35
2019-01-17T03:43:46.678Z,12.90
2019-01-17T03:46:14.972Z,12.47
2019-01-17T03:48:43.307Z,13.22
2019-01-17T03:51:11.601Z,12.58
2019-01-17T03:53:39.924Z,12.60
2019-01-17T03:56:08.212Z,13.50
2019-01-17T03:58:36.529Z,13.65
2019-01-17T04:01:24.199Z,13.97
2019-01-17T04:04:11.972Z,13.38
2019-01-17T04:06:40.260Z,13.13
2019-01-17T04:09:08.588Z,13.20
2019-01-17T04:11:36.891Z,13.40
2019-01-17T04:14:45.255Z,13.00
2019-01-17T04:17:13.532Z,14.47
2019-01-17T04:19:41.858Z,12.47
2019-01-17T04:22:10.132Z,13.18
2019-01-17T04:24:57.810Z,11.85
2019-01-17T04:27:26.104Z,11.87
2019-01-17T04:29:54.394Z,12.23
2019-01-17T04:32:23.060Z,12.00
2019-01-17T04:34:51.343Z,11.73
2019-01-17T04:37:19.652Z,11.70
2019-01-17T04:39:47.945Z,11.80
2019-01-17T04:42:16.262Z,11.90
2019-01-17T04:44:44.854Z,11.40
2019-01-17T04:47:13.173Z,12.50
2019-01-17T04:49:41.468Z,12.90
2019-01-17T04:52:49.886Z,12.82
2019-01-17T04:55:18.502Z,13.18
2019-01-17T04:57:46.821Z,12.75
2019-01-17T05:00:55.160Z,13.53
2019-01-17T05:03:23.488Z,12.63
2019-01-17T05:06:10.908Z,13.93
2019-01-17T05:08:39.234Z,14.10
2019-01-17T05:11:07.523Z,14.30
2019-01-17T05:13:35.815Z,13.83
2019-01-17T05:18:39.525Z,14.33
2019-01-17T05:21:07.843Z,14.90
2019-01-17T05:23:36.409Z,14.85
2019-01-17T05:26:24.160Z,15.90
2019-01-17T05:28:52.471Z,15.65
2019-01-17T05:31:20.771Z,15.80
2019-01-17T05:33:49.376Z,15.85
2019-01-17T05:36:37.059Z,14.80
2019-01-17T05:39:45.380Z,16.23
2019-01-17T05:42:14.009Z,16.02
2019-01-17T05:44:42.591Z,15.78
2019-01-17T05:47:10.913Z,15.30
2019-01-17T05:49:39.201Z,15.67
2019-01-17T05:52:07.534Z,16.37
2019-01-17T05:57:25.915Z,15.80
2019-01-17T05:59:54.203Z,15.53
2019-01-17T06:02:22.500Z,14.83
2019-01-17T06:04:50.822Z,14.98
2019-01-17T06:07:19.117Z,14.87
2019-01-17T06:10:06.809Z,14.25
2019-01-17T06:12:35.125Z,14.35
2019-01-17T06:15:23.556Z,15.90
2019-01-17T06:17:52.137Z,40.30
2019-01-17T06:20:20.449Z,23.55
2019-01-17T06:22:49.098Z,14.43
2019-01-17T06:25:17.452Z,14.65
2019-01-17T06:27:45.751Z,14.40
2019-01-17T06:30:34.968Z,14.35
2019-01-17T06:33:22.609Z,15.15
2019-01-17T06:36:10.293Z,15.70
2019-01-17T06:38:38.613Z,15.60
2019-01-17T06:41:07.242Z,15.57
2019-01-17T06:43:54.682Z,15.30
2019-01-17T06:46:22.965Z,15.28
2019-01-17T06:48:51.270Z,14.80
2019-01-17T06:51:19.553Z,15.80
2019-01-17T06:54:07.245Z,16.65
2019-01-17T06:56:35.532Z,16.80
2019-01-17T06:59:23.206Z,16.93
2019-01-17T07:02:10.883Z,17.15
2019-01-17T07:04:39.200Z,16.82
2019-01-17T07:07:19.888Z,17.75
2019-01-17T07:12:22.345Z,18.10
2019-01-17T07:14:50.651Z,18.48
2019-01-17T07:17:18.955Z,18.60
2019-01-17T07:20:06.637Z,19.00
2019-01-17T07:22:54.044Z,19.10
2019-01-17T07:25:41.856Z,19.50
2019-01-17T07:28:10.146Z,18.92
2019-01-17T07:30:57.571Z,18.60
2019-01-17T07:33:25.868Z,18.90
2019-01-17T07:35:54.178Z,18.92
2019-01-17T07:38:22.507Z,17.10
2019-01-17T07:40:50.807Z,17.85
2019-01-17T07:43:19.115Z,18.02
2019-01-17T07:46:06.772Z,18.42
2019-01-17T07:48:54.731Z,17.92
2019-01-17T07:51:23.281Z,17.30
2019-01-17T07:53:51.591Z,17.20
2019-01-17T07:56:39.222Z,16.75
2019-01-17T07:59:26.852Z,17.60
2019-01-17T08:01:55.153Z,16.55
2019-01-17T08:05:03.517Z,16.85
2019-01-17T08:07:31.816Z,16.53
2019-01-17T08:10:19.763Z,16.82
2019-01-17T08:13:28.353Z,15.50
2019-01-17T08:15:57.999Z,17.00
2019-01-17T08:18:26.943Z,16.87
2019-01-17T08:20:55.268Z,17.25
2019-01-17T08:23:23.564Z,16.90
2019-01-17T08:25:54.353Z,17.37
2019-01-17T08:28:21.897Z,16.17
2019-01-17T08:30:50.180Z,15.97
2019-01-17T08:33:37.620Z,15.90
2019-01-17T08:39:12.442Z,15.15
2019-01-17T08:41:40.748Z,13.95
2019-01-17T08:44:28.427Z,14.75
2019-01-17T08:46:56.729Z,14.38
2019-01-17T08:49:25.023Z,13.43
2019-01-17T08:51:53.337Z,13.65
2019-01-17T08:54:21.633Z,13.53
2019-01-17T08:56:49.957Z,12.43
2019-01-17T08:59:18.527Z,13.00
2019-01-17T09:01:47.113Z,11.88
2019-01-17T09:07:22.096Z,11.03
2019-01-17T09:09:50.383Z,11.00
2019-01-17T09:12:18.678Z,10.70
2019-01-17T09:17:20.659Z,9.70
2019-01-17T09:19:48.975Z,9.43
2019-01-17T09:22:17.256Z,8.90
2019-01-17T09:25:04.958Z,8.60
2019-01-17T09:27:33.240Z,7.78
2019-01-17T09:30:01.535Z,8.10
2019-01-17T09:32:29.829Z,7.30
2019-01-17T09:34:58.386Z,8.33
2019-01-17T09:43:12.634Z,7.37
2019-01-17T09:45:40.992Z,7.28
2019-01-17T09:48:09.291Z,7.20
2019-01-17T09:50:37.589Z,7.53
2019-01-17T09:53:25.102Z,8.00
2019-01-17T09:55:53.719Z,8.00
2019-01-17T10:01:34.411Z,7.47
2019-01-17T10:04:02.695Z,8.05
2019-01-17T10:06:30.992Z,7.37
2019-01-17T10:08:59.288Z,7.25
2019-01-17T10:11:27.591Z,7.35
2019-01-17T10:13:55.870Z,6.62
2019-01-17T10:17:04.224Z,7.55
2019-01-17T10:22:41.602Z,7.40
2019-01-17T10:25:49.936Z,8.05
2019-01-17T10:28:56.950Z,7.97
2019-01-17T10:32:03.957Z,8.35
2019-01-17T10:35:10.995Z,8.60
2019-01-17T10:38:18.242Z,7.25
2019-01-17T10:41:26.590Z,8.55
2019-01-17T10:44:33.597Z,8.40
2019-01-17T10:47:40.891Z,7.87
2019-01-17T10:50:49.225Z,8.15
2019-01-17T10:53:56.491Z,7.03
2019-01-17T10:57:03.490Z,5.75
2019-01-17T11:00:11.836Z,5.35
2019-01-17T11:03:18.832Z,5.17
2019-01-17T11:06:27.181Z,4.03
2019-01-17T11:09:35.516Z,4.60
2019-01-17T11:12:43.943Z,4.25
2019-01-17T11:15:52.332Z,3.00
2019-01-17T11:18:59.381Z,3.70
2019-01-17T11:22:06.373Z,3.40
2019-01-17T11:25:13.399Z,3.80
2019-01-17T11:28:21.735Z,2.70
2019-01-17T11:31:28.999Z,2.60
2019-01-17T11:34:36.275Z,2.55
2019-01-17T11:37:44.666Z,2.72
2019-01-17T11:40:51.670Z,2.70
2019-01-17T11:43:58.692Z,2.90
2019-01-17T11:47:07.006Z,3.27
2019-01-17T11:50:15.414Z,3.10
2019-01-17T11:53:24.040Z,16.73
2019-01-17T11:56:31.045Z,3.20
2019-01-17T11:59:39.451Z,8.50
2019-01-17T12:02:46.456Z,3.92
2019-01-17T12:07:48.682Z,3.33
2019-01-17T12:10:29.528Z,3.70
2019-01-17T12:15:46.781Z,4.25
2019-01-17T12:18:15.061Z,5.40
2019-01-17T12:23:36.819Z,4.30
2019-01-17T12:26:05.391Z,4.67
2019-01-17T12:28:33.684Z,4.30
2019-01-17T12:31:01.975Z,4.60
2019-01-17T12:33:30.649Z,4.50
2019-01-17T12:35:58.925Z,5.50
2019-01-17T12:38:27.221Z,6.43
2019-01-17T12:40:55.512Z,7.90
2019-01-17T12:43:23.825Z,7.28
2019-01-17T12:46:11.479Z,6.20
2019-01-17T12:48:39.792Z,6.00
2019-01-17T12:51:08.078Z,6.80
2019-01-17T12:53:36.366Z,5.95
2019-01-17T12:56:44.710Z,5.22
2019-01-17T12:59:12.990Z,5.70
2019-01-17T13:01:41.301Z,6.03
2019-01-17T13:04:29.042Z,5.97
2019-01-17T13:06:57.351Z,5.30
2019-01-17T13:09:25.631Z,6.10
2019-01-17T13:11:53.929Z,6.33
2019-01-17T13:14:41.624Z,6.00
2019-01-17T13:17:10.162Z,5.25
2019-01-17T13:19:38.476Z,6.62
2019-01-17T13:22:46.803Z,6.03
2019-01-17T13:25:55.148Z,5.28
2019-01-17T13:28:23.422Z,5.40
2019-01-17T13:30:51.732Z,5.20
2019-01-17T13:36:47.384Z,5.22
2019-01-17T13:39:15.680Z,4.65
2019-01-17T13:42:03.364Z,5.20
2019-01-17T13:47:38.360Z,4.78
2019-01-17T13:50:46.921Z,4.10
2019-01-17T13:53:15.231Z,4.30
2019-01-17T13:56:02.633Z,3.92
2019-01-17T13:58:30.978Z,3.70
2019-01-17T14:00:59.272Z,3.80
2019-01-17T14:06:14.886Z,4.20
2019-01-17T14:08:43.171Z,4.03
2019-01-17T14:11:30.595Z,3.85
2019-01-17T14:16:49.710Z,4.67
2019-01-17T14:19:17.999Z,6.12
2019-01-17T14:21:46.296Z,5.25
2019-01-17T14:24:33.980Z,5.08
2019-01-17T14:30:50.379Z,4.93
2019-01-17T14:33:18.956Z,4.50
2019-01-17T14:35:47.262Z,3.98
2019-01-17T14:38:35.192Z,4.62
2019-01-17T14:41:22.626Z,4.80
2019-01-17T14:49:12.719Z,5.25
2019-01-17T14:51:41.010Z,5.12
2019-01-17T14:54:09.326Z,5.50
2019-01-17T14:56:37.609Z,4.40
2019-01-17T15:01:40.266Z,4.33
2019-01-17T15:04:08.590Z,3.92
2019-01-17T15:06:37.202Z,4.03
2019-01-17T15:09:45.817Z,3.65
2019-01-17T15:12:14.102Z,3.00
2019-01-17T15:14:42.692Z,2.92
2019-01-17T15:17:11.008Z,3.80
2019-01-17T15:19:39.300Z,4.60
2019-01-17T15:22:07.604Z,4.80
2019-01-17T15:24:35.891Z,4.62
2019-01-17T15:27:27.299Z,4.60
2019-01-17T15:29:53.956Z,4.60
2019-01-17T15:32:22.234Z,4.53
2019-01-17T15:37:24.838Z,5.03
2019-01-17T15:40:31.858Z,5.80
2019-01-17T15:43:00.154Z,5.35
2019-01-17T15:45:28.464Z,4.40
2019-01-17T15:47:57.150Z,4.40
2019-01-17T15:51:05.518Z,4.90
2019-01-17T15:53:33.798Z,4.30
2019-01-17T15:56:02.073Z,3.83
2019-01-17T15:58:30.382Z,4.05
2019-01-17T16:00:58.973Z,4.20
2019-01-17T16:03:27.262Z,4.15
2019-01-17T16:06:14.929Z,3.90
2019-01-17T16:08:43.242Z,4.50
2019-01-17T16:11:11.847Z,3.95
2019-01-17T16:13:59.526Z,3.80
2019-01-17T16:16:27.811Z,3.95
2019-01-17T16:18:56.087Z,4.12
2019-01-17T16:21:24.707Z,4.30
2019-01-17T16:23:52.995Z,4.17
2019-01-17T16:26:21.334Z,3.60
2019-01-17T16:28:49.587Z,2.70
2019-01-17T16:31:18.117Z,3.08
2019-01-17T16:33:46.719Z,2.87
2019-01-17T16:36:15.307Z,3.15
2019-01-17T16:39:03.243Z,2.70
2019-01-17T16:41:31.829Z,2.65
2019-01-17T16:44:00.403Z,2.50
2019-01-17T16:46:35.976Z,2.40
2019-01-17T16:49:04.527Z,3.90
2019-01-17T16:51:32.834Z,2.62
2019-01-17T16:54:01.136Z,2.92
2019-01-17T16:56:29.449Z,2.67
2019-01-17T16:58:57.744Z,3.60
2019-01-17T17:01:26.064Z,3.45
2019-01-17T17:03:54.339Z,3.70
2019-01-17T17:06:22.627Z,3.77
2019-01-17T17:08:50.929Z,4.40
2019-01-17T17:11:19.211Z,3.47
2019-01-17T17:13:47.509Z,3.00
2019-01-17T17:16:16.070Z,3.58
2019-01-17T17:19:03.742Z,3.00
2019-01-17T17:21:32.387Z,2.87
2019-01-17T17:24:00.686Z,2.90
2019-01-17T17:26:48.116Z,2.80
2019-01-17T17:29:16.395Z,3.02
2019-01-17T17:31:44.684Z,3.30
2019-01-17T17:34:12.983Z,3.70
2019-01-17T17:37:00.657Z,3.42
2019-01-17T17:39:48.612Z,3.20
2019-01-17T17:42:36.026Z,2.98
2019-01-17T17:45:44.361Z,3.02
2019-01-17T17:48:12.655Z,4.10
2019-01-17T17:53:14.787Z,3.75
2019-01-17T17:55:43.371Z,3.50
2019-01-17T17:58:11.668Z,3.90
2019-01-17T18:03:28.919Z,3.67
2019-01-17T18:05:57.220Z,3.55
2019-01-17T18:08:44.892Z,4.28
2019-01-17T18:11:13.216Z,4.10
2019-01-17T18:13:41.864Z,4.50
2019-01-17T18:16:10.148Z,4.20
2019-01-17T18:18:38.715Z,4.90
2019-01-17T18:21:07.009Z,5.12
2019-01-17T18:23:35.333Z,4.40
2019-01-17T18:26:22.814Z,4.62
2019-01-17T18:28:51.124Z,4.85
2019-01-17T18:31:19.405Z,4.22
2019-01-17T18:34:06.843Z,4.57
2019-01-17T18:36:35.137Z,4.50
2019-01-17T18:41:58.296Z,4.80
2019-01-17T18:44:26.600Z,3.85
2019-01-17T18:46:54.900Z,2.98
2019-01-17T18:49:42.551Z,3.60
2019-01-17T18:52:30.674Z,3.50
2019-01-17T18:54:58.957Z,3.55
2019-01-17T19:00:01.550Z,4.17
2019-01-17T19:07:58.581Z,4.80
2019-01-17T19:13:33.638Z,4.78
2019-01-17T19:16:01.941Z,5.60
2019-01-17T19:18:30.237Z,5.58
2019-01-17T19:20:58.543Z,5.47
2019-01-17T19:23:26.829Z,5.50
2019-01-17T19:26:14.520Z,4.83
2019-01-17T19:28:42.810Z,4.10
2019-01-17T19:31:30.764Z,4.85
2019-01-17T19:34:18.180Z,4.70
2019-01-17T19:36:46.492Z,4.93
2019-01-17T19:39:14.791Z,4.70
2019-01-17T19:41:43.080Z,4.45
2019-01-17T19:47:04.408Z,6.42
2019-01-17T19:49:32.708Z,5.97
2019-01-17T19:52:00.991Z,5.30
2019-01-17T19:54:29.295Z,5.90
2019-01-17T19:56:57.596Z,5.92
2019-01-17T19:59:25.909Z,5.45
2019-01-17T20:01:54.227Z,6.33
2019-01-17T20:04:41.998Z,7.50
2019-01-17T20:07:11.885Z,7.65
2019-01-17T20:09:59.297Z,6.90
2019-01-17T20:12:27.600Z,7.30
2019-01-17T20:15:15.020Z,6.78
2019-01-17T20:17:43.326Z,6.83
2019-01-17T20:20:51.657Z,6.80
2019-01-17T20:23:39.604Z,7.67
2019-01-17T20:26:27.333Z,7.75
2019-01-17T20:31:29.227Z,7.40
2019-01-17T20:33:57.511Z,7.30
2019-01-17T20:36:25.839Z,7.78
2019-01-17T20:38:54.125Z,7.58
2019-01-17T20:41:22.800Z,7.53
2019-01-17T20:47:15.302Z,8.18
2019-01-17T20:49:43.583Z,8.20
2019-01-17T20:52:11.885Z,8.58
2019-01-17T20:54:59.559Z,8.40
2019-01-17T21:00:56.937Z,11.18
2019-01-17T21:03:25.241Z,11.18
2019-01-17T21:06:12.919Z,9.90
2019-01-17T21:08:41.217Z,9.60
2019-01-17T21:11:29.227Z,10.43
2019-01-17T21:13:57.519Z,9.73
2019-01-17T21:16:25.837Z,9.70
2019-01-17T21:19:34.408Z,9.55
2019-01-17T21:27:30.552Z,9.45
2019-01-17T21:29:58.855Z,9.40
2019-01-17T21:35:39.408Z,10.08
2019-01-17T21:38:08.028Z,9.55
2019-01-17T21:40:55.957Z,9.13
2019-01-17T21:43:24.273Z,9.33
2019-01-17T21:45:52.560Z,8.33
2019-01-17T21:48:20.870Z,8.70
2019-01-17T21:50:49.492Z,8.40
2019-01-17T21:53:36.967Z,7.05
2019-01-17T21:56:05.285Z,7.35
2019-01-17T21:58:33.872Z,7.90
2019-01-17T22:01:21.308Z,7.40
2019-01-17T22:03:49.606Z,7.03
2019-01-17T22:09:45.528Z,6.80
2019-01-17T22:15:01.150Z,7.60
2019-01-17T22:17:29.720Z,7.72
2019-01-17T22:19:57.986Z,7.20
2019-01-17T22:22:26.297Z,7.40
2019-01-17T22:24:54.936Z,7.10
2019-01-17T22:27:42.625Z,7.33
2019-01-17T22:30:30.323Z,7.15
2019-01-17T22:32:58.630Z,6.80
2019-01-17T22:35:26.929Z,7.10
2019-01-17T22:38:35.353Z,6.75
2019-01-17T22:44:31.173Z,6.50
2019-01-17T22:47:18.847Z,6.00
2019-01-17T22:49:47.151Z,6.20
2019-01-17T22:52:15.448Z,6.62
2019-01-17T22:55:03.128Z,6.80
2019-01-17T22:57:31.416Z,6.53
2019-01-17T23:00:00.000Z,6.90
2019-01-17T23:02:47.632Z,6.77
2019-01-17T23:05:15.940Z,6.80
2019-01-17T23:07:44.574Z,6.22
2019-01-17T23:10:52.908Z,6.08
2019-01-17T23:13:21.227Z,5.97
2019-01-17T23:16:08.853Z,6.28
2019-01-17T23:18:56.555Z,5.90
2019-01-17T23:21:24.856Z,5.70
2019-01-17T23:23:53.154Z,5.25
2019-01-17T23:26:21.475Z,5.90
2019-01-17T23:28:49.788Z,6.08
2019-01-17T23:31:18.093Z,6.70
2019-01-17T23:33:58.227Z,5.50
2019-01-17T23:36:35.545Z,6.40
2019-01-17T23:39:23.175Z,5.20
2019-01-17T23:42:10.849Z,6.03
2019-01-17T23:44:39.139Z,6.10
2019-01-17T23:47:07.441Z,6.20
2019-01-17T23:49:35.753Z,6.10
2019-01-17T23:52:23.427Z,5.50
2019-01-17T23:55:10.868Z,5.35
2019-01-17T23:57:39.156Z,4.90
